Detalii statie BONGA [00001D00]

Toti senzorii

Date Temperatura solului [C]Precipitatii [mm]Voltaj baterie [mV]Leaf Wetness [Min]HC Air temperature [C]HC Relative humidity [%]Punctul de roua [C]
medieminmaxsumaultimatimpmedieminmaxmediemediemin
2018-02-23 13:00:00 -0.3 -0.3 -0.3 0 7342 -0.32 -0.75 0.09 0 0 0
2018-02-23 14:00:00 -0.3 -0.4 -0.2 0 7342 -0.38 -0.71 -0.16 0 0 0
2018-02-23 15:00:00 -0.3 -0.4 -0.3 0 7284 -0.15 -0.3 0.02 0 0 0
2018-02-23 16:00:00 -0.3 -0.4 -0.2 0 7342 -0.24 -0.35 -0.14 0 0 0
2018-02-23 17:00:00 -0.3 -0.4 -0.3 0 7148 -0.24 -0.33 -0.16 0 0 0
2018-02-23 18:00:00 -0.3 -0.4 -0.3 0 7040 -0.52 -0.7 -0.29 0 0 0
2018-02-23 19:00:00 -0.3 -0.4 -0.3 0 7010 -1.1 -1.44 -0.72 0 0 0
2018-02-23 20:00:00 -0.3 -0.4 -0.2 0 6992 -1.61 -1.74 -1.5 0 0 0
2018-02-23 21:00:00 -0.3 -0.4 -0.3 0 6982 -1.62 -1.69 -1.55 0 0 0
2018-02-23 22:00:00 -0.3 -0.4 -0.2 0 6962 -1.57 -1.62 -1.53 0 0 0
2018-02-23 23:00:00 -0.2 -0.3 -0.2 0 6942 -1.62 -1.66 -1.59 0 0 0
2018-02-24 00:00:00 -0.2 -0.3 -0.2 0 6922 -1.68 -1.73 -1.64 0 0 0
2018-02-24 01:00:00 -0.2 -0.3 -0.1 0 6922 -1.94 -2.21 -1.76 0 0 0
2018-02-24 02:00:00 -0.2 -0.3 -0.2 0 6894 -2.2 -2.25 -2.12 0 0 0
2018-02-24 03:00:00 -0.2 -0.3 -0.2 0 6894 -2.17 -2.2 -2.13 0 0 0
2018-02-24 04:00:00 -0.2 -0.3 -0.1 0 6894 -2.26 -2.35 -2.19 0 0 0
2018-02-24 05:00:00 -0.2 -0.3 -0.2 0 6894 -2.49 -2.6 -2.38 0 0 0
2018-02-24 06:00:00 -0.2 -0.3 -0.1 0 6874 -2.69 -2.86 -2.6 0 0 0
2018-02-24 07:00:00 -0.2 -0.3 -0.2 0 6874 -3.1 -3.47 -2.87 0 0 0
2018-02-24 08:00:00 -0.2 -0.3 -0.1 0 6884 -3.63 -3.71 -3.51 0 0 0
2018-02-24 09:00:00 -0.3 -0.4 -0.2 0 6914 -3.69 -3.75 -3.58 0 0 0
2018-02-24 10:00:00 -0.3 -0.4 -0.2 0 6972 -3.48 -3.65 -3.39 0 0 0
2018-02-24 11:00:00 -0.3 -0.4 -0.3 0 7186 -4.01 -4.34 -3.55 0 0 0
2018-02-24 12:00:00 -0.3 -0.4 -0.3 0 7362 -4.01 -4.14 -3.88 0 0 0
2018-02-24 13:00:00 -0.3 -0.4 -0.2 0 7362 -3.78 -3.96 -3.53 0 0 0
2018-02-24 14:00:00 -0.3 -0.4 -0.2 0 7362 -3.64 -3.8 -3.42 0 0 0
2018-02-24 15:00:00 -0.2 -0.4 -0.1 0 7324 -3.6 -3.74 -3.46 0 0 0
2018-02-24 16:00:00 -0.1 -0.3 -0.1 0 7274 -3.77 -3.9 -3.64 0 0 0
2018-02-24 17:00:00 -0.2 -0.4 -0.2 0 7264 -3.63 -3.78 -3.51 0 0 0
2018-02-24 18:00:00 -0.2 -0.3 -0.1 0 7070 -4.09 -4.6 -3.75 0 0 0
2018-02-24 19:00:00 -0.2 -0.3 -0.2 0 7040 -4.58 -4.72 -4.49 0 0 0
2018-02-24 20:00:00 -0.3 -0.4 -0.3 0 7010 -5.07 -5.49 -4.62 0 0 0
2018-02-24 21:00:00 -0.3 -0.5 -0.3 0 6992 -6.47 -7.11 -5.7 0 0 0
2018-02-24 22:00:00 -0.5 -0.6 -0.5 0 6904 -10.3 -10.8 -8.69 0 0 0
2018-02-24 23:00:00 -0.5 -0.7 -0.5 0 6904 -9.85 -10.58 -9.54 0 0 0
2018-02-25 00:00:00 -0.6 -0.7 -0.6 0 6932 -10.38 -11.01 -9.87 0 0 0
2018-02-25 01:00:00 -0.6 -0.7 -0.5 0 6914 -10.64 -10.94 -10.17 0 0 0
2018-02-25 02:00:00 -0.6 -0.7 -0.6 0 6904 -10.51 -10.79 -10.24 0 0 0
2018-02-25 03:00:00 -0.7 -0.9 -0.7 0 6826 -10.84 -11.36 -10.7 0 0 0
2018-02-25 04:00:00 -0.7 -0.8 -0.7 0 6874 -11.1 -11.44 -10.68 0 0 0
2018-02-25 05:00:00 -0.7 -0.9 -0.7 0 6874 -9.98 -10.64 -9.64 0 0 0
2018-02-25 06:00:00 -0.8 -1 -0.7 0 6826 -9.13 -9.57 -8.96 0 0 0
2018-02-25 07:00:00 -0.8 -1 -0.8 0 6816 -9.06 -9.11 -9.01 0 0 0
2018-02-25 08:00:00 -0.8 -0.9 -0.8 0 7010 -9.16 -9.31 -9.06 0 0 0
2018-02-25 09:00:00 -0.9 -1 -0.8 0 7332 -9.2 -9.33 -8.98 0 0 0
2018-02-25 10:00:00 -0.8 -0.9 -0.8 0 7352 -8.17 -8.89 -7.31 0 0 0
2018-02-25 11:00:00 -0.7 -0.9 -0.7 0 7382 -6.8 -7.19 -6.53 0 0 0
2018-02-25 12:00:00 -0.7 -0.8 -0.6 0 7352 -6.77 -7.09 -6.53 0 0 0